EZY46AM EGPH-EGGD
Flight info
| Callsign | EZY46AM |
|---|---|
| Flight time | 0h 54m |
| Altitude | 33000 |
| Route | GOSAM P600 FENIK L612 NAVSO DCT ADZOP DCT EGTOC DCT NOKIN N862 KARNO/N0440F320 DCT ALHUP DCT LUCSA/N0396F230 N862 WEVBE |
| Aircraft | A319/M-SDE3FGHIRWY/LB1 |
Departure
| Time | 2026-04-26 09:50 |
|---|---|
| Airport | Edinburgh Airport (EGPH) |
Arrival
| Time | 2026-04-26 10:44 |
|---|---|
| Airport | Bristol Airport (EGGD) |
| Time | Latitude | Longitude | Altitude | Speed | Heading |
|---|---|---|---|---|---|
| 2026-04-26 09:21 | 55.94903 | -3.36493 | 116 ft | 0 kts | 148° |
| 2026-04-26 09:40 | 55.94906 | -3.36496 | 116 ft | 3 kts | 148° |
| 2026-04-26 09:40 | 55.94926 | -3.36520 | 113 ft | 3 kts | 142° |
| 2026-04-26 09:40 | 55.94944 | -3.36548 | 112 ft | 3 kts | 123° |
| 2026-04-26 09:41 | 55.94951 | -3.36583 | 113 ft | 2 kts | 61° |
| 2026-04-26 09:41 | 55.94950 | -3.36586 | 113 ft | 0 kts | 59° |
| 2026-04-26 09:44 | 55.94953 | -3.36577 | 112 ft | 1 kts | 59° |
| 2026-04-26 09:45 | 55.94960 | -3.36556 | 114 ft | 3 kts | 59° |
| 2026-04-26 09:45 | 55.94971 | -3.36524 | 115 ft | 4 kts | 59° |
| 2026-04-26 09:45 | 55.94986 | -3.36480 | 115 ft | 5 kts | 59° |
| 2026-04-26 09:45 | 55.95005 | -3.36425 | 116 ft | 6 kts | 59° |
| 2026-04-26 09:46 | 55.95039 | -3.36387 | 116 ft | 6 kts | 2° |
| 2026-04-26 09:46 | 55.95085 | -3.36398 | 116 ft | 7 kts | 14° |
| 2026-04-26 09:46 | 55.95119 | -3.36327 | 116 ft | 8 kts | 59° |
| 2026-04-26 09:46 | 55.95150 | -3.36233 | 115 ft | 9 kts | 59° |
| 2026-04-26 09:47 | 55.95185 | -3.36128 | 114 ft | 11 kts | 59° |
| 2026-04-26 09:47 | 55.95229 | -3.36000 | 116 ft | 14 kts | 58° |
| 2026-04-26 09:47 | 55.95282 | -3.35842 | 114 ft | 16 kts | 60° |
| 2026-04-26 09:47 | 55.95340 | -3.35674 | 115 ft | 14 kts | 59° |
| 2026-04-26 09:48 | 55.95390 | -3.35525 | 114 ft | 13 kts | 59° |
| 2026-04-26 09:48 | 55.95426 | -3.35424 | 113 ft | 8 kts | 53° |
| 2026-04-26 09:48 | 55.95478 | -3.35418 | 113 ft | 9 kts | 331° |
| 2026-04-26 09:48 | 55.95499 | -3.35439 | 115 ft | 0 kts | 331° |
| 2026-04-26 09:49 | 55.95503 | -3.35443 | 112 ft | 2 kts | 330° |
| 2026-04-26 09:49 | 55.95535 | -3.35480 | 113 ft | 8 kts | 327° |
| 2026-04-26 09:49 | 55.95566 | -3.35572 | 113 ft | 10 kts | 256° |
| 2026-04-26 09:49 | 55.95529 | -3.35684 | 113 ft | 12 kts | 239° |
| 2026-04-26 09:50 | 55.95368 | -3.36165 | 110 ft | 91 kts | 239° |
| 2026-04-26 09:50 | 55.94893 | -3.37582 | 128 ft | 168 kts | 240° |
| 2026-04-26 09:50 | 55.94281 | -3.39430 | 854 ft | 173 kts | 239° |
| 2026-04-26 09:50 | 55.93660 | -3.41219 | 1744 ft | 165 kts | 237° |
| 2026-04-26 09:51 | 55.93017 | -3.43059 | 2209 ft | 186 kts | 237° |
| 2026-04-26 09:51 | 55.92297 | -3.45129 | 2553 ft | 210 kts | 238° |
| 2026-04-26 09:51 | 55.91482 | -3.47469 | 3112 ft | 234 kts | 238° |
| 2026-04-26 09:51 | 55.90631 | -3.50084 | 3858 ft | 251 kts | 247° |
| 2026-04-26 09:52 | 55.90215 | -3.53145 | 4874 ft | 257 kts | 259° |
| 2026-04-26 09:52 | 55.89589 | -3.59476 | 6961 ft | 263 kts | 259° |
| 2026-04-26 09:52 | 55.89273 | -3.62705 | 7952 ft | 265 kts | 259° |
| 2026-04-26 09:53 | 55.88952 | -3.65956 | 8916 ft | 268 kts | 258° |
| 2026-04-26 09:53 | 55.88622 | -3.69246 | 9871 ft | 271 kts | 258° |
| 2026-04-26 09:53 | 55.88282 | -3.72601 | 10617 ft | 283 kts | 258° |
| 2026-04-26 09:53 | 55.87919 | -3.76140 | 10940 ft | 306 kts | 258° |
| 2026-04-26 09:54 | 55.87526 | -3.79937 | 11528 ft | 318 kts | 258° |
| 2026-04-26 09:54 | 55.87132 | -3.83851 | 12319 ft | 323 kts | 258° |
| 2026-04-26 09:54 | 55.86738 | -3.87822 | 13125 ft | 328 kts | 258° |
| 2026-04-26 09:54 | 55.86340 | -3.91842 | 13931 ft | 332 kts | 259° |
| 2026-04-26 09:55 | 55.85936 | -3.95909 | 14645 ft | 336 kts | 258° |
| 2026-04-26 09:55 | 55.85523 | -4.00020 | 15370 ft | 339 kts | 258° |
| 2026-04-26 09:55 | 55.85108 | -4.04161 | 16100 ft | 341 kts | 259° |
| 2026-04-26 09:55 | 55.84684 | -4.08336 | 16836 ft | 344 kts | 257° |
| 2026-04-26 09:56 | 55.83865 | -4.12319 | 17533 ft | 346 kts | 240° |
| 2026-04-26 09:56 | 55.82362 | -4.15667 | 18238 ft | 350 kts | 223° |
| 2026-04-26 09:56 | 55.80388 | -4.18251 | 18902 ft | 354 kts | 216° |
| 2026-04-26 09:56 | 55.78349 | -4.20731 | 19510 ft | 357 kts | 216° |
| 2026-04-26 09:57 | 55.76281 | -4.23207 | 20110 ft | 361 kts | 213° |
| 2026-04-26 09:57 | 55.73974 | -4.25062 | 20698 ft | 369 kts | 200° |
| 2026-04-26 09:57 | 55.71429 | -4.25897 | 21271 ft | 378 kts | 186° |
| 2026-04-26 09:57 | 55.68779 | -4.25564 | 21833 ft | 388 kts | 172° |
| 2026-04-26 09:58 | 55.66197 | -4.24009 | 22397 ft | 398 kts | 159° |
| 2026-04-26 09:58 | 55.63699 | -4.21820 | 22976 ft | 403 kts | 156° |
| 2026-04-26 09:58 | 55.61226 | -4.19428 | 23526 ft | 407 kts | 154° |
| 2026-04-26 09:58 | 55.58755 | -4.16918 | 24014 ft | 411 kts | 153° |
| 2026-04-26 09:59 | 55.56274 | -4.14366 | 24463 ft | 415 kts | 153° |
| 2026-04-26 09:59 | 55.53764 | -4.11810 | 24910 ft | 417 kts | 154° |
| 2026-04-26 09:59 | 55.51229 | -4.09281 | 25352 ft | 420 kts | 155° |
| 2026-04-26 09:59 | 55.48666 | -4.06770 | 25785 ft | 423 kts | 155° |
| 2026-04-26 10:00 | 55.46082 | -4.04268 | 26216 ft | 425 kts | 155° |
| 2026-04-26 10:00 | 55.43479 | -4.01759 | 26642 ft | 428 kts | 155° |
| 2026-04-26 10:00 | 55.40861 | -3.99238 | 27056 ft | 431 kts | 156° |
| 2026-04-26 10:00 | 55.38219 | -3.96697 | 27484 ft | 434 kts | 156° |
| 2026-04-26 10:01 | 55.35562 | -3.94138 | 27884 ft | 437 kts | 156° |
| 2026-04-26 10:01 | 55.32894 | -3.91561 | 28310 ft | 440 kts | 156° |
| 2026-04-26 10:01 | 55.30203 | -3.88964 | 28724 ft | 442 kts | 156° |
| 2026-04-26 10:01 | 55.27499 | -3.86360 | 29124 ft | 445 kts | 156° |
| 2026-04-26 10:02 | 55.24806 | -3.83774 | 29504 ft | 448 kts | 156° |
| 2026-04-26 10:02 | 55.21989 | -3.81326 | 29881 ft | 446 kts | 163° |
| 2026-04-26 10:02 | 55.19104 | -3.79596 | 30238 ft | 445 kts | 168° |
| 2026-04-26 10:02 | 55.16140 | -3.77983 | 30565 ft | 447 kts | 168° |
| 2026-04-26 10:03 | 55.13164 | -3.76359 | 30887 ft | 449 kts | 168° |
| 2026-04-26 10:03 | 55.10174 | -3.74722 | 31213 ft | 451 kts | 168° |
| 2026-04-26 10:03 | 55.07172 | -3.73080 | 31527 ft | 453 kts | 168° |
| 2026-04-26 10:03 | 55.04159 | -3.71434 | 31839 ft | 455 kts | 168° |
| 2026-04-26 10:04 | 55.01144 | -3.69784 | 32271 ft | 453 kts | 168° |
| 2026-04-26 10:04 | 54.98142 | -3.68138 | 32722 ft | 452 kts | 167° |
| 2026-04-26 10:04 | 54.95147 | -3.66502 | 33148 ft | 451 kts | 167° |
| 2026-04-26 10:04 | 54.92150 | -3.64879 | 33280 ft | 448 kts | 168° |
| 2026-04-26 10:05 | 54.86319 | -3.61724 | 33294 ft | 434 kts | 168° |
| 2026-04-26 10:05 | 54.80565 | -3.58629 | 33299 ft | 432 kts | 168° |
| 2026-04-26 10:06 | 54.74824 | -3.55532 | 33298 ft | 432 kts | 168° |
| 2026-04-26 10:06 | 54.69080 | -3.52440 | 33299 ft | 432 kts | 168° |
| 2026-04-26 10:07 | 54.63334 | -3.49370 | 33296 ft | 432 kts | 168° |
| 2026-04-26 10:07 | 54.57591 | -3.46314 | 33289 ft | 432 kts | 168° |
| 2026-04-26 10:08 | 54.51850 | -3.43266 | 33283 ft | 432 kts | 168° |
| 2026-04-26 10:08 | 54.46107 | -3.40228 | 33281 ft | 432 kts | 168° |
| 2026-04-26 10:09 | 54.40365 | -3.37190 | 33278 ft | 432 kts | 167° |
| 2026-04-26 10:09 | 54.34620 | -3.34158 | 33277 ft | 432 kts | 167° |
| 2026-04-26 10:10 | 54.28874 | -3.31145 | 33281 ft | 432 kts | 167° |
| 2026-04-26 10:10 | 54.23124 | -3.28143 | 33280 ft | 432 kts | 167° |
| 2026-04-26 10:11 | 54.17343 | -3.25481 | 33279 ft | 427 kts | 176° |
| 2026-04-26 10:11 | 54.11458 | -3.24489 | 33277 ft | 425 kts | 179° |
| 2026-04-26 10:12 | 54.05567 | -3.23587 | 33278 ft | 425 kts | 179° |
| 2026-04-26 10:12 | 53.99671 | -3.22568 | 33276 ft | 428 kts | 174° |
| 2026-04-26 10:13 | 53.93832 | -3.20378 | 33282 ft | 430 kts | 172° |
| 2026-04-26 10:13 | 53.87996 | -3.18147 | 33279 ft | 430 kts | 172° |
| 2026-04-26 10:14 | 53.82152 | -3.15928 | 33280 ft | 430 kts | 172° |
| 2026-04-26 10:14 | 53.76306 | -3.13722 | 33278 ft | 430 kts | 172° |
| 2026-04-26 10:15 | 53.70462 | -3.11524 | 33278 ft | 430 kts | 172° |
| 2026-04-26 10:15 | 53.64615 | -3.09331 | 33280 ft | 430 kts | 172° |
| 2026-04-26 10:16 | 53.58770 | -3.07147 | 33276 ft | 431 kts | 172° |
| 2026-04-26 10:16 | 53.52918 | -3.04962 | 33290 ft | 431 kts | 172° |
| 2026-04-26 10:17 | 53.47069 | -3.02786 | 33296 ft | 431 kts | 172° |
| 2026-04-26 10:17 | 53.41214 | -3.00609 | 33303 ft | 431 kts | 172° |
| 2026-04-26 10:18 | 53.35360 | -2.98442 | 33304 ft | 431 kts | 172° |
| 2026-04-26 10:18 | 53.30496 | -2.96651 | 33309 ft | 431 kts | 172° |
| 2026-04-26 10:19 | 53.24635 | -2.94492 | 33003 ft | 432 kts | 172° |
| 2026-04-26 10:19 | 53.21701 | -2.93410 | 32741 ft | 432 kts | 172° |
| 2026-04-26 10:19 | 53.18767 | -2.92331 | 32475 ft | 432 kts | 172° |
| 2026-04-26 10:20 | 53.15828 | -2.91256 | 32214 ft | 432 kts | 172° |
| 2026-04-26 10:20 | 53.12891 | -2.90188 | 31955 ft | 432 kts | 172° |
| 2026-04-26 10:20 | 53.09961 | -2.89128 | 31693 ft | 430 kts | 172° |
| 2026-04-26 10:20 | 53.07018 | -2.88492 | 31440 ft | 424 kts | 181° |
| 2026-04-26 10:21 | 53.04094 | -2.88582 | 31188 ft | 419 kts | 187° |
| 2026-04-26 10:21 | 53.01189 | -2.88850 | 30941 ft | 418 kts | 187° |
| 2026-04-26 10:21 | 52.98292 | -2.89101 | 30692 ft | 416 kts | 186° |
| 2026-04-26 10:21 | 52.95407 | -2.89343 | 30448 ft | 414 kts | 186° |
| 2026-04-26 10:22 | 52.92547 | -2.89580 | 29926 ft | 410 kts | 186° |
| 2026-04-26 10:22 | 52.89711 | -2.89827 | 29338 ft | 406 kts | 188° |
| 2026-04-26 10:22 | 52.86932 | -2.90418 | 28770 ft | 400 kts | 191° |
| 2026-04-26 10:22 | 52.84185 | -2.91067 | 28207 ft | 397 kts | 191° |
| 2026-04-26 10:23 | 52.81458 | -2.91710 | 27662 ft | 394 kts | 191° |
| 2026-04-26 10:23 | 52.78757 | -2.92349 | 27136 ft | 391 kts | 191° |
| 2026-04-26 10:23 | 52.76074 | -2.92983 | 26634 ft | 388 kts | 191° |
| 2026-04-26 10:23 | 52.73411 | -2.93612 | 26143 ft | 386 kts | 191° |
| 2026-04-26 10:24 | 52.70752 | -2.94167 | 25669 ft | 384 kts | 186° |
| 2026-04-26 10:24 | 52.68087 | -2.94383 | 25216 ft | 382 kts | 185° |
| 2026-04-26 10:24 | 52.65439 | -2.94589 | 24774 ft | 380 kts | 185° |
| 2026-04-26 10:24 | 52.62807 | -2.94796 | 24331 ft | 377 kts | 185° |
| 2026-04-26 10:25 | 52.60192 | -2.95005 | 23892 ft | 375 kts | 185° |
| 2026-04-26 10:25 | 52.57596 | -2.95220 | 23385 ft | 373 kts | 185° |
| 2026-04-26 10:25 | 52.55012 | -2.95439 | 22896 ft | 370 kts | 185° |
| 2026-04-26 10:25 | 52.52447 | -2.95655 | 22424 ft | 368 kts | 185° |
| 2026-04-26 10:26 | 52.49904 | -2.95869 | 21964 ft | 365 kts | 185° |
| 2026-04-26 10:26 | 52.47374 | -2.96083 | 21494 ft | 363 kts | 185° |
| 2026-04-26 10:26 | 52.44862 | -2.96293 | 21037 ft | 360 kts | 185° |
| 2026-04-26 10:26 | 52.42366 | -2.96501 | 20571 ft | 358 kts | 185° |
| 2026-04-26 10:27 | 52.39886 | -2.96705 | 20125 ft | 356 kts | 185° |
| 2026-04-26 10:27 | 52.37423 | -2.96906 | 19698 ft | 353 kts | 185° |
| 2026-04-26 10:27 | 52.34975 | -2.97107 | 19272 ft | 351 kts | 184° |
| 2026-04-26 10:27 | 52.32539 | -2.97306 | 18838 ft | 349 kts | 184° |
| 2026-04-26 10:28 | 52.30119 | -2.97503 | 18407 ft | 347 kts | 184° |
| 2026-04-26 10:28 | 52.27712 | -2.97696 | 17945 ft | 345 kts | 184° |
| 2026-04-26 10:28 | 52.25323 | -2.97886 | 17502 ft | 343 kts | 184° |
| 2026-04-26 10:28 | 52.22944 | -2.98079 | 17075 ft | 341 kts | 184° |
| 2026-04-26 10:29 | 52.20587 | -2.98272 | 16656 ft | 338 kts | 184° |
| 2026-04-26 10:29 | 52.18242 | -2.98463 | 16239 ft | 336 kts | 184° |
| 2026-04-26 10:29 | 52.15912 | -2.98652 | 15828 ft | 334 kts | 184° |
| 2026-04-26 10:29 | 52.13598 | -2.98838 | 15446 ft | 332 kts | 184° |
| 2026-04-26 10:30 | 52.11291 | -2.99022 | 15297 ft | 332 kts | 184° |
| 2026-04-26 10:30 | 52.08986 | -2.99205 | 15315 ft | 332 kts | 184° |
| 2026-04-26 10:30 | 52.06674 | -2.99388 | 15322 ft | 332 kts | 184° |
| 2026-04-26 10:30 | 52.04363 | -2.99576 | 15325 ft | 333 kts | 184° |
| 2026-04-26 10:31 | 52.02050 | -2.99766 | 15326 ft | 333 kts | 184° |
| 2026-04-26 10:31 | 51.99740 | -2.99956 | 15330 ft | 333 kts | 184° |
| 2026-04-26 10:31 | 51.97424 | -3.00146 | 15333 ft | 333 kts | 184° |
| 2026-04-26 10:31 | 51.95115 | -2.99988 | 15218 ft | 332 kts | 173° |
| 2026-04-26 10:32 | 51.92882 | -2.99049 | 14819 ft | 332 kts | 161° |
| 2026-04-26 10:32 | 51.90713 | -2.97724 | 14365 ft | 334 kts | 161° |
| 2026-04-26 10:32 | 51.88538 | -2.96403 | 13887 ft | 334 kts | 161° |
| 2026-04-26 10:32 | 51.86359 | -2.95089 | 13392 ft | 334 kts | 161° |
| 2026-04-26 10:33 | 51.84196 | -2.93788 | 13023 ft | 329 kts | 161° |
| 2026-04-26 10:33 | 51.82104 | -2.92532 | 12728 ft | 320 kts | 161° |
| 2026-04-26 10:33 | 51.80052 | -2.91302 | 12448 ft | 310 kts | 161° |
| 2026-04-26 10:33 | 51.78063 | -2.90114 | 12168 ft | 301 kts | 161° |
| 2026-04-26 10:34 | 51.76116 | -2.88959 | 11887 ft | 296 kts | 161° |
| 2026-04-26 10:34 | 51.74188 | -2.87815 | 11550 ft | 294 kts | 161° |
| 2026-04-26 10:34 | 51.72269 | -2.86677 | 11238 ft | 293 kts | 161° |
| 2026-04-26 10:34 | 51.70347 | -2.85559 | 10678 ft | 295 kts | 164° |
| 2026-04-26 10:35 | 51.68317 | -2.85247 | 10085 ft | 295 kts | 187° |
| 2026-04-26 10:35 | 51.66326 | -2.86012 | 9455 ft | 295 kts | 199° |
| 2026-04-26 10:35 | 51.64377 | -2.87092 | 8846 ft | 296 kts | 200° |
| 2026-04-26 10:35 | 51.62464 | -2.88180 | 8464 ft | 288 kts | 200° |
| 2026-04-26 10:36 | 51.60599 | -2.89246 | 8077 ft | 280 kts | 200° |
| 2026-04-26 10:36 | 51.58799 | -2.90279 | 7704 ft | 270 kts | 200° |
| 2026-04-26 10:36 | 51.57064 | -2.91279 | 7333 ft | 260 kts | 200° |
| 2026-04-26 10:36 | 51.55396 | -2.92243 | 6960 ft | 251 kts | 200° |
| 2026-04-26 10:37 | 51.53770 | -2.93184 | 6594 ft | 243 kts | 200° |
| 2026-04-26 10:37 | 51.52208 | -2.94093 | 6195 ft | 235 kts | 200° |
| 2026-04-26 10:37 | 51.50694 | -2.94979 | 5821 ft | 230 kts | 200° |
| 2026-04-26 10:37 | 51.49199 | -2.95862 | 5448 ft | 226 kts | 200° |
| 2026-04-26 10:38 | 51.47749 | -2.96732 | 5073 ft | 219 kts | 200° |
| 2026-04-26 10:38 | 51.46354 | -2.97579 | 4742 ft | 211 kts | 200° |
| 2026-04-26 10:38 | 51.44994 | -2.98411 | 4357 ft | 207 kts | 200° |
| 2026-04-26 10:38 | 51.43661 | -2.99235 | 3969 ft | 204 kts | 200° |
| 2026-04-26 10:39 | 51.42361 | -3.00046 | 3635 ft | 197 kts | 200° |
| 2026-04-26 10:39 | 51.41108 | -3.00839 | 3247 ft | 191 kts | 200° |
| 2026-04-26 10:39 | 51.39890 | -3.01603 | 2867 ft | 186 kts | 197° |
| 2026-04-26 10:39 | 51.38646 | -3.01720 | 2537 ft | 174 kts | 167° |
| 2026-04-26 10:40 | 51.37658 | -3.00893 | 2498 ft | 153 kts | 135° |
| 2026-04-26 10:40 | 51.37186 | -2.99351 | 2513 ft | 161 kts | 98° |
| 2026-04-26 10:40 | 51.37238 | -2.97551 | 2518 ft | 162 kts | 88° |
| 2026-04-26 10:40 | 51.37311 | -2.95750 | 2520 ft | 162 kts | 88° |
| 2026-04-26 10:41 | 51.37384 | -2.93950 | 2520 ft | 162 kts | 88° |
| 2026-04-26 10:41 | 51.37457 | -2.92144 | 2515 ft | 163 kts | 88° |
| 2026-04-26 10:41 | 51.37531 | -2.90340 | 2514 ft | 162 kts | 88° |
| 2026-04-26 10:41 | 51.37603 | -2.88568 | 2490 ft | 162 kts | 89° |
| 2026-04-26 10:42 | 51.37677 | -2.86741 | 2343 ft | 162 kts | 88° |
| 2026-04-26 10:42 | 51.37749 | -2.84957 | 2159 ft | 164 kts | 88° |
| 2026-04-26 10:42 | 51.37823 | -2.83106 | 1932 ft | 164 kts | 88° |
| 2026-04-26 10:42 | 51.37895 | -2.81328 | 1715 ft | 160 kts | 88° |
| 2026-04-26 10:43 | 51.37964 | -2.79593 | 1482 ft | 152 kts | 88° |
| 2026-04-26 10:43 | 51.38029 | -2.77957 | 1259 ft | 142 kts | 87° |
| 2026-04-26 10:43 | 51.38090 | -2.76425 | 1063 ft | 135 kts | 87° |
| 2026-04-26 10:43 | 51.38148 | -2.74939 | 855 ft | 132 kts | 88° |
| 2026-04-26 10:44 | 51.38205 | -2.73482 | 692 ft | 131 kts | 88° |
| 2026-04-26 10:44 | 51.38255 | -2.72107 | 631 ft | 107 kts | 86° |
| 2026-04-26 10:44 | 51.38298 | -2.71127 | 614 ft | 65 kts | 86° |
| 2026-04-26 10:44 | 51.38309 | -2.70830 | 618 ft | 14 kts | 87° |
| 2026-04-26 10:45 | 51.38381 | -2.70740 | 617 ft | 14 kts | 19° |
| 2026-04-26 10:45 | 51.38460 | -2.70725 | 613 ft | 10 kts | 307° |
| 2026-04-26 10:45 | 51.38467 | -2.70833 | 622 ft | 10 kts | 265° |
| 2026-04-26 10:45 | 51.38464 | -2.70941 | 614 ft | 9 kts | 265° |
| 2026-04-26 10:46 | 51.38460 | -2.71046 | 615 ft | 10 kts | 265° |
| 2026-04-26 10:46 | 51.38458 | -2.71112 | 615 ft | 2 kts | 279° |
| 2026-04-26 10:46 | 51.38468 | -2.71132 | 625 ft | 3 kts | 319° |
| 2026-04-26 10:46 | 51.38490 | -2.71137 | 614 ft | 4 kts | 0° |
| 2026-04-26 10:47 | 51.38522 | -2.71138 | 614 ft | 5 kts | 357° |
| 2026-04-26 10:47 | 51.38551 | -2.71141 | 614 ft | 2 kts | 357° |
| 2026-04-26 10:47 | 51.38557 | -2.71141 | 614 ft | 0 kts | 357° |